createdAt,value
2023-03-27T00:03:25.775Z,3.17
2023-03-27T00:08:51.726Z,1.45
2023-03-27T00:14:16.067Z,2.95
2023-03-27T00:19:41.204Z,4.10
2023-03-27T00:25:05.476Z,2.75
2023-03-27T00:30:31.106Z,1.83
2023-03-27T00:35:56.506Z,2.50
2023-03-27T00:41:20.375Z,4.10
2023-03-27T00:46:45.803Z,8.65
2023-03-27T00:52:13.582Z,3.53
2023-03-27T00:57:38.060Z,4.75
2023-03-27T01:03:07.039Z,2.97
2023-03-27T01:08:37.141Z,6.93
2023-03-27T01:14:16.676Z,4.63
2023-03-27T01:20:07.267Z,3.17
2023-03-27T01:25:58.700Z,6.17
2023-03-27T01:37:34.661Z,6.53
2023-03-27T01:43:04.664Z,2.97
2023-03-27T01:48:37.848Z,7.38
2023-03-27T01:54:05.922Z,2.35
2023-03-27T01:59:35.180Z,1.70
2023-03-27T02:05:05.611Z,3.53
2023-03-27T02:10:43.121Z,4.10
2023-03-27T02:16:16.606Z,5.20
2023-03-27T02:21:40.775Z,2.72
2023-03-27T02:27:13.905Z,2.28
2023-03-27T02:32:47.818Z,4.30
2023-03-27T02:38:18.780Z,3.45
2023-03-27T02:43:55.141Z,4.10
2023-03-27T02:49:36.450Z,6.25
2023-03-27T02:55:06.685Z,4.32
2023-03-27T03:00:39.646Z,5.15
2023-03-27T03:06:30.093Z,2.38
2023-03-27T03:11:56.061Z,2.55
2023-03-27T03:17:19.956Z,4.40
2023-03-27T03:22:46.058Z,3.67
2023-03-27T03:28:13.800Z,3.88
2023-03-27T03:33:37.934Z,2.38
2023-03-27T03:39:04.267Z,1.67
2023-03-27T03:44:28.738Z,1.27
2023-03-27T03:49:54.076Z,1.90
2023-03-27T03:55:19.625Z,1.85
2023-03-27T04:00:43.643Z,2.35
2023-03-27T04:06:21.819Z,1.73
2023-03-27T04:11:47.105Z,2.28
2023-03-27T04:17:29.453Z,4.00
2023-03-27T04:22:55.464Z,8.93
2023-03-27T04:28:22.716Z,3.35
2023-03-27T04:33:56.777Z,2.90
2023-03-27T04:45:25.727Z,5.50
2023-03-27T04:50:50.650Z,3.30
2023-03-27T04:56:30.828Z,2.50
2023-03-27T05:01:57.634Z,3.40
2023-03-27T05:07:45.434Z,5.65
2023-03-27T05:13:14.214Z,4.35
2023-03-27T05:18:42.142Z,3.70
2023-03-27T05:24:06.865Z,2.72
2023-03-27T05:29:31.308Z,2.40
2023-03-27T05:35:12.524Z,1.98
2023-03-27T05:40:39.461Z,3.85
2023-03-27T05:46:03.931Z,3.47
2023-03-27T05:51:31.590Z,5.32
2023-03-27T05:56:55.759Z,3.88
2023-03-27T06:02:21.447Z,7.30
2023-03-27T06:08:00.930Z,2.00
2023-03-27T06:13:25.300Z,1.83
2023-03-27T06:18:56.116Z,4.22
2023-03-27T06:24:22.477Z,2.55
2023-03-27T06:29:46.968Z,1.88
2023-03-27T06:35:11.168Z,3.80
2023-03-27T06:40:51.776Z,1.67
2023-03-27T06:46:16.252Z,1.35
2023-03-27T06:52:09.674Z,1.77
2023-03-27T06:57:35.278Z,0.90
2023-03-27T07:03:02.888Z,1.30
2023-03-27T07:09:02.018Z,2.33
2023-03-27T07:14:28.400Z,2.92
2023-03-27T07:19:53.582Z,3.08
2023-03-27T07:25:21.683Z,2.45
2023-03-27T07:30:47.078Z,2.20
2023-03-27T07:36:17.318Z,1.48
2023-03-27T07:41:47.651Z,2.87
2023-03-27T07:47:27.346Z,2.38
2023-03-27T07:52:54.150Z,2.28
2023-03-27T07:58:21.337Z,1.73
2023-03-27T08:03:49.548Z,1.88
2023-03-27T08:09:15.766Z,2.53
2023-03-27T08:14:39.518Z,2.75
2023-03-27T08:20:18.141Z,1.10
2023-03-27T08:25:45.515Z,2.17
2023-03-27T08:31:12.235Z,3.25
2023-03-27T08:36:38.359Z,3.15
2023-03-27T08:42:06.004Z,2.67
2023-03-27T08:47:41.762Z,2.60
2023-03-27T08:53:23.739Z,4.63
2023-03-27T08:58:48.610Z,6.47
2023-03-27T09:04:37.421Z,6.20
2023-03-27T09:10:10.590Z,4.90
2023-03-27T09:15:58.542Z,3.55
2023-03-27T09:21:32.243Z,4.05
2023-03-27T09:27:15.489Z,3.10
2023-03-27T09:32:44.453Z,4.25
2023-03-27T09:38:24.201Z,5.57
2023-03-27T09:43:55.564Z,5.47
2023-03-27T09:49:21.141Z,3.80
2023-03-27T09:54:56.057Z,5.47
2023-03-27T10:00:30.833Z,6.20
2023-03-27T10:06:06.988Z,4.73
2023-03-27T10:11:42.047Z,3.33
2023-03-27T10:17:23.759Z,4.53
2023-03-27T10:22:55.820Z,2.90
2023-03-27T10:28:29.516Z,2.38
2023-03-27T10:34:30.433Z,3.45
2023-03-27T10:40:18.853Z,2.15
2023-03-27T10:45:50.319Z,1.95
2023-03-27T10:51:33.191Z,2.60
2023-03-27T10:57:11.322Z,2.15
2023-03-27T11:02:41.997Z,4.78
2023-03-27T11:08:13.860Z,11.20
2023-03-27T11:13:41.877Z,17.05
2023-03-27T11:19:23.532Z,20.80
2023-03-27T11:25:12.120Z,18.40
2023-03-27T11:30:44.410Z,25.90
2023-03-27T11:36:28.121Z,21.02
2023-03-27T11:42:01.885Z,16.33
2023-03-27T11:47:42.055Z,19.13
2023-03-27T11:53:38.154Z,19.63
2023-03-27T11:59:51.501Z,18.80
2023-03-27T12:05:23.366Z,21.95
2023-03-27T12:10:56.178Z,15.60
2023-03-27T12:17:14.391Z,17.58
2023-03-27T12:23:05.499Z,13.02
2023-03-27T12:29:23.562Z,11.57
2023-03-27T12:35:00.692Z,12.88
2023-03-27T12:40:39.854Z,10.45
2023-03-27T12:46:16.467Z,9.20
2023-03-27T12:51:44.642Z,9.05
2023-03-27T12:57:20.720Z,4.95
2023-03-27T13:03:25.192Z,2.67
2023-03-27T13:09:21.440Z,2.83
2023-03-27T13:15:38.998Z,1.77
2023-03-27T13:21:19.123Z,2.83
2023-03-27T13:26:59.210Z,1.35
2023-03-27T13:32:37.839Z,2.58
2023-03-27T13:38:18.356Z,2.88
2023-03-27T13:43:56.930Z,4.75
2023-03-27T13:49:59.259Z,2.47
2023-03-27T13:55:50.367Z,3.85
2023-03-27T14:01:43.272Z,6.72
2023-03-27T14:07:44.971Z,3.15
2023-03-27T14:13:34.144Z,3.58
2023-03-27T14:19:34.509Z,4.70
2023-03-27T14:30:45.183Z,2.15
2023-03-27T14:36:42.547Z,2.88
2023-03-27T14:42:18.057Z,2.20
2023-03-27T14:47:49.048Z,3.78
2023-03-27T14:53:19.522Z,3.97
2023-03-27T14:59:02.149Z,16.00
2023-03-27T15:04:41.216Z,5.30
2023-03-27T15:10:20.847Z,2.35
2023-03-27T15:16:09.532Z,2.95
2023-03-27T15:21:46.589Z,2.05
2023-03-27T15:27:19.267Z,3.08
2023-03-27T15:32:50.746Z,1.75
2023-03-27T15:38:17.128Z,5.70
2023-03-27T15:43:40.973Z,1.50
2023-03-27T15:49:22.559Z,2.58
2023-03-27T15:54:55.481Z,3.78
2023-03-27T16:00:19.936Z,1.80
2023-03-27T16:05:45.554Z,9.40
2023-03-27T16:11:12.125Z,1.75
2023-03-27T16:16:35.922Z,1.92
2023-03-27T16:22:01.129Z,4.22
2023-03-27T16:27:27.775Z,1.95
2023-03-27T16:32:51.782Z,1.88
2023-03-27T16:38:17.243Z,3.25
2023-03-27T16:43:41.455Z,2.38
2023-03-27T16:49:05.471Z,4.82
2023-03-27T16:54:30.601Z,2.22
2023-03-27T16:59:54.370Z,4.90
2023-03-27T17:05:18.132Z,11.25
2023-03-27T17:10:43.394Z,3.47
2023-03-27T17:16:07.977Z,3.47
2023-03-27T17:21:33.082Z,13.43
2023-03-27T17:26:58.360Z,2.85
2023-03-27T17:32:22.176Z,2.05
2023-03-27T17:37:46.526Z,3.97
2023-03-27T17:43:12.487Z,2.15
2023-03-27T17:48:37.954Z,2.88
2023-03-27T17:54:01.755Z,1.90
2023-03-27T17:59:27.857Z,1.65
2023-03-27T18:04:52.744Z,1.92
2023-03-27T18:10:19.193Z,1.75
2023-03-27T18:15:45.137Z,1.88
2023-03-27T18:21:09.356Z,2.97
2023-03-27T18:26:33.093Z,2.92
2023-03-27T18:31:58.504Z,3.13
2023-03-27T18:37:22.746Z,1.23
2023-03-27T18:42:46.575Z,2.72
2023-03-27T18:48:12.895Z,3.17
2023-03-27T18:53:36.871Z,1.42
2023-03-27T18:59:01.190Z,2.42
2023-03-27T19:04:26.326Z,1.98
2023-03-27T19:09:50.289Z,1.92
2023-03-27T19:20:57.061Z,2.95
2023-03-27T19:26:38.438Z,3.33
2023-03-27T19:32:02.206Z,2.60
2023-03-27T19:37:27.992Z,1.90
2023-03-27T19:42:51.840Z,1.75
2023-03-27T19:48:15.804Z,1.65
2023-03-27T19:53:41.932Z,2.92
2023-03-27T19:59:06.860Z,7.55
2023-03-27T20:04:30.596Z,1.92
2023-03-27T20:09:56.975Z,8.48
2023-03-27T20:15:20.921Z,1.65
2023-03-27T20:20:45.086Z,1.90
2023-03-27T20:26:10.472Z,3.25
2023-03-27T20:31:38.123Z,2.28
2023-03-27T20:37:03.611Z,1.85
2023-03-27T20:42:51.253Z,2.97
2023-03-27T20:48:18.089Z,3.45
2023-03-27T20:53:44.893Z,2.25
2023-03-27T20:59:10.097Z,1.58
2023-03-27T21:04:33.917Z,3.22
2023-03-27T21:09:57.711Z,1.50
2023-03-27T21:15:22.982Z,1.50
2023-03-27T21:20:46.761Z,8.45
2023-03-27T21:26:10.619Z,1.83
2023-03-27T21:31:35.862Z,2.33
2023-03-27T21:36:59.777Z,2.47
2023-03-27T21:42:23.590Z,2.78
2023-03-27T21:47:51.017Z,1.90
2023-03-27T21:53:16.850Z,3.40
2023-03-27T21:58:40.618Z,3.25
2023-03-27T22:04:06.072Z,3.90
2023-03-27T22:09:29.863Z,2.58
2023-03-27T22:14:53.642Z,2.00
2023-03-27T22:20:19.038Z,4.65
2023-03-27T22:25:42.734Z,1.67
2023-03-27T22:31:07.473Z,1.95
2023-03-27T22:36:35.438Z,2.38
2023-03-27T22:41:59.237Z,3.22
2023-03-27T22:47:23.026Z,1.67
2023-03-27T22:52:48.144Z,5.68
2023-03-27T22:58:11.837Z,2.30
2023-03-27T23:03:37.272Z,1.67
2023-03-27T23:09:02.500Z,4.60
2023-03-27T23:14:26.303Z,2.17
2023-03-27T23:19:49.990Z,1.95
2023-03-27T23:25:15.437Z,2.75
2023-03-27T23:30:40.548Z,2.28
2023-03-27T23:36:07.202Z,2.72
2023-03-27T23:41:32.304Z,2.30
2023-03-27T23:46:56.654Z,2.83
2023-03-27T23:52:20.411Z,5.18
2023-03-27T23:57:45.838Z,3.15
